Time;durP1;ratioP1;P1;durP2;ratioP2;P2;SDS_P1;SDS_P2;PMS_P1;PMS_P2;Temp;Humidity;BMP_temperature;BMP_pressure;BME280_temperature;BME280_humidity;BME280_pressure;Samples;Min_cycle;Max_cycle;Signal;HPM_P1;HPM_P2
2022/03/10 00:01:59;;;;;;;;;;;;;;;3.88;100.00;102218.00;5036708;28;20007;-80
2022/03/10 00:04:24;;;;;;;;;;;;;;;3.87;100.00;102220.47;5037657;28;19925;-79
2022/03/10 00:06:49;;;;;;;;;;;;;;;3.87;100.00;102220.47;5019038;28;20028;-79
2022/03/10 00:09:14;;;;;;;;;;;;;;;3.96;100.00;102210.81;5019326;28;19921;-79
2022/03/10 00:11:42;;;;;;;;;;;;;;;3.90;100.00;102220.72;5019393;28;19921;-80
2022/03/10 00:14:07;;;;;;;;;;;;;;;3.92;100.00;102213.97;5036986;28;20004;-79
2022/03/10 00:16:32;;;;;;;;;;;;;;;4.02;100.00;102218.25;5037494;28;19964;-79
2022/03/10 00:18:58;;;;;;;;;;;;;;;4.07;100.00;102214.34;5019609;28;19952;-79
2022/03/10 00:21:23;;;;;;;;;;;;;;;4.10;100.00;102211.97;5019791;28;19975;-79
2022/03/10 00:23:48;;;;;;;;;;;;;;;4.01;100.00;102221.63;5019061;28;19944;-79
2022/03/10 00:26:13;;;;;;;;;;;;;;;4.03;100.00;102222.69;5019649;28;19928;-79
2022/03/10 00:28:39;;;;;;;;;;;;;;;4.05;100.00;102222.03;5019379;28;19928;-80
2022/03/10 00:31:06;;;;;;;;;;;;;;;4.00;100.00;102212.91;5019039;28;20357;-79
2022/03/10 00:33:42;;;;;;;;;;;;;;;3.84;100.00;102218.53;5018844;28;20016;-79
2022/03/10 00:36:08;;;;;;;;;;;;;;;3.79;100.00;102212.00;5019445;28;19986;-79
2022/03/10 00:38:33;;;;;;;;;;;;;;;3.69;100.00;102205.09;5036839;28;20357;-80
2022/03/10 00:40:59;;;;;;;;;;;;;;;3.62;100.00;102199.22;5040726;28;20435;-79
2022/03/10 00:43:37;;;;;;;;;;;;;;;3.53;100.00;102197.66;5018951;28;19921;-79
2022/03/10 00:46:02;;;;;;;;;;;;;;;3.42;100.00;102204.56;5034585;28;19926;-78
2022/03/10 00:48:29;;;;;;;;;;;;;;;3.34;100.00;102205.59;5035634;28;20015;-78
2022/03/10 00:50:54;;;;;;;;;;;;;;;3.27;100.00;102204.94;5036195;28;19932;-77
2022/03/10 00:53:30;;;;;;;;;;;;;;;3.18;100.00;102207.63;5035929;28;19921;-79
2022/03/10 00:55:55;;;;;;;;;;;;;;;3.10;100.00;102204.34;5019455;28;19944;-78
2022/03/10 00:58:20;;;;;;;;;;;;;;;3.08;100.00;102210.19;5019174;28;20288;-78
2022/03/10 01:00:45;;;;;;;;;;;;;;;2.94;100.00;102209.00;5018974;28;19924;-78
2022/03/10 01:03:15;;;;;;;;;;;;;;;2.83;100.00;102206.34;5036192;28;19921;-78
2022/03/10 01:05:40;;;;;;;;;;;;;;;2.73;100.00;102210.59;5018803;28;19925;-78
2022/03/10 01:08:05;;;;;;;;;;;;;;;2.62;100.00;102218.34;5018920;28;19929;-78
2022/03/10 01:10:31;;;;;;;;;;;;;;;2.61;100.00;102210.41;5018785;28;19921;-81
2022/03/10 01:12:56;;;;;;;;;;;;;;;2.44;100.00;102208.88;5017166;28;19925;-78
2022/03/10 01:15:23;;;;;;;;;;;;;;;2.43;100.00;102212.28;5017753;28;19957;-78
2022/03/10 01:17:48;;;;;;;;;;;;;;;2.42;100.00;102208.75;5017763;28;19921;-77
2022/03/10 01:20:14;;;;;;;;;;;;;;;2.36;100.00;102215.97;5018023;28;20044;-79
2022/03/10 01:22:40;;;;;;;;;;;;;;;2.32;100.00;102206.09;5017948;28;20015;-79
2022/03/10 01:25:06;;;;;;;;;;;;;;;2.26;100.00;102210.75;5018243;28;19967;-78
2022/03/10 01:27:33;;;;;;;;;;;;;;;2.18;100.00;102202.25;5018349;28;20341;-78
2022/03/10 01:29:58;;;;;;;;;;;;;;;2.15;100.00;102202.88;5020696;28;19928;-79
2022/03/10 01:32:31;;;;;;;;;;;;;;;2.10;100.00;102198.03;5017986;28;20015;-79
2022/03/10 01:34:56;;;;;;;;;;;;;;;2.10;100.00;102208.44;5018009;28;20350;-79
2022/03/10 01:37:22;;;;;;;;;;;;;;;2.07;100.00;102196.06;5018221;28;19921;-79
2022/03/10 01:39:47;;;;;;;;;;;;;;;1.97;100.00;102201.19;5018022;28;19921;-79
2022/03/10 01:42:14;;;;;;;;;;;;;;;1.90;100.00;102201.41;5035147;28;19929;-79
2022/03/10 01:44:40;;;;;;;;;;;;;;;1.89;100.00;102196.97;5017819;28;19925;-79
2022/03/10 01:47:06;;;;;;;;;;;;;;;1.84;100.00;102199.13;5017583;28;19928;-79
2022/03/10 01:49:32;;;;;;;;;;;;;;;1.84;100.00;102203.44;5033930;28;19925;-79
2022/03/10 01:52:06;;;;;;;;;;;;;;;1.82;100.00;102197.16;5035011;28;20012;-78
2022/03/10 01:54:31;;;;;;;;;;;;;;;1.81;100.00;102205.75;5017802;28;20354;-79
2022/03/10 01:56:58;;;;;;;;;;;;;;;1.81;100.00;102197.94;5017293;28;19974;-79
2022/03/10 01:59:23;;;;;;;;;;;;;;;1.78;100.00;102199.47;5017398;28;19921;-78
2022/03/10 02:01:49;;;;;;;;;;;;;;;1.77;100.00;102195.06;5016536;28;20043;-78
2022/03/10 02:04:15;;;;;;;;;;;;;;;1.73;100.00;102190.34;5015976;28;20020;-79
2022/03/10 02:06:40;;;;;;;;;;;;;;;1.73;100.00;102199.84;5017642;28;19948;-78
2022/03/10 02:11:51;;;;;;;;;;;;;;;1.82;100.00;102194.56;5034871;28;19932;-79
2022/03/10 02:17:20;;;;;;;;;;;;;;;1.86;100.00;102192.38;5035324;28;19948;-79
2022/03/10 02:19:53;;;;;;;;;;;;;;;1.85;100.00;102195.78;5018079;28;19921;-79
2022/03/10 02:22:20;;;;;;;;;;;;;;;1.85;100.00;102190.59;5017434;28;19928;-79
2022/03/10 02:24:46;;;;;;;;;;;;;;;1.83;100.00;102189.50;5034273;28;19952;-79
2022/03/10 02:27:15;;;;;;;;;;;;;;;1.82;100.00;102187.72;5017100;28;19921;-79
2022/03/10 02:29:42;;;;;;;;;;;;;;;1.79;100.00;102195.22;5017286;28;19925;-79
2022/03/10 02:32:10;;;;;;;;;;;;;;;1.75;100.00;102199.19;5017422;28;20012;-79
2022/03/10 02:34:36;;;;;;;;;;;;;;;1.70;100.00;102190.06;5017265;28;19928;-79
2022/03/10 02:37:01;;;;;;;;;;;;;;;1.64;100.00;102183.41;5017212;28;20012;-78
2022/03/10 02:39:26;;;;;;;;;;;;;;;1.60;100.00;102187.38;5032722;28;19972;-79
2022/03/10 02:41:53;;;;;;;;;;;;;;;1.62;100.00;102180.66;5016868;28;19921;-79
2022/03/10 02:44:19;;;;;;;;;;;;;;;1.58;100.00;102194.13;5016953;28;20002;-79
2022/03/10 02:46:44;;;;;;;;;;;;;;;1.56;100.00;102195.66;5017119;28;19921;-79
2022/03/10 02:49:09;;;;;;;;;;;;;;;1.55;100.00;102199.03;5017048;28;19931;-78
2022/03/10 02:51:34;;;;;;;;;;;;;;;1.49;100.00;102190.66;5017046;28;20044;-79
2022/03/10 02:54:02;;;;;;;;;;;;;;;1.46;100.00;102185.16;5017020;28;20109;-78
2022/03/10 02:56:27;;;;;;;;;;;;;;;1.42;100.00;102203.06;5017305;28;19967;-79
2022/03/10 02:58:52;;;;;;;;;;;;;;;1.43;100.00;102199.69;5016966;28;20012;-79
2022/03/10 03:01:18;;;;;;;;;;;;;;;1.39;100.00;102194.97;5017050;28;19921;-79
2022/03/10 03:03:47;;;;;;;;;;;;;;;1.36;100.00;102197.28;5016670;28;19948;-79
2022/03/10 03:06:13;;;;;;;;;;;;;;;1.54;100.00;102204.97;5016917;28;19921;-79
2022/03/10 03:08:39;;;;;;;;;;;;;;;1.51;100.00;102208.22;5017038;28;19921;-78
2022/03/10 03:11:07;;;;;;;;;;;;;;;1.53;100.00;102210.94;5017089;28;20004;-79
2022/03/10 03:13:32;;;;;;;;;;;;;;;1.56;100.00;102217.34;5016115;28;19922;-79
2022/03/10 03:15:58;;;;;;;;;;;;;;;1.50;100.00;102219.34;5016584;28;19927;-78
2022/03/10 03:18:23;;;;;;;;;;;;;;;1.41;100.00;102224.59;5016997;28;19921;-79
2022/03/10 03:20:49;;;;;;;;;;;;;;;1.38;100.00;102221.72;5016426;28;20370;-79
2022/03/10 03:23:14;;;;;;;;;;;;;;;1.45;100.00;102220.63;5015838;28;19936;-78
2022/03/10 03:25:40;;;;;;;;;;;;;;;1.46;100.00;102221.50;5015022;28;19925;-78
2022/03/10 03:28:06;;;;;;;;;;;;;;;1.57;100.00;102220.84;5014851;28;19917;-79
2022/03/10 03:30:31;;;;;;;;;;;;;;;1.61;100.00;102222.97;5016835;28;20008;-78
2022/03/10 03:33:02;;;;;;;;;;;;;;;1.51;100.00;102212.47;5032708;28;20376;-79
2022/03/10 03:35:28;;;;;;;;;;;;;;;1.50;100.00;102215.84;5034108;28;19917;-78
2022/03/10 03:37:53;;;;;;;;;;;;;;;1.48;100.00;102217.41;5033057;28;19925;-79
2022/03/10 03:40:19;;;;;;;;;;;;;;;1.42;100.00;102216.03;5034239;28;19924;-79
2022/03/10 03:42:49;;;;;;;;;;;;;;;1.38;100.00;102226.91;5019710;28;20350;-79
2022/03/10 03:45:15;;;;;;;;;;;;;;;1.49;100.00;102221.81;5019943;28;20259;-78
2022/03/10 03:47:41;;;;;;;;;;;;;;;1.61;100.00;102230.75;5019952;28;19952;-79
2022/03/10 03:50:06;;;;;;;;;;;;;;;1.54;100.00;102238.72;5036319;28;19981;-79
2022/03/10 03:52:40;;;;;;;;;;;;;;;1.52;100.00;102235.06;5019619;28;20423;-79
2022/03/10 03:55:05;;;;;;;;;;;;;;;1.46;100.00;102243.22;5019508;28;19921;-79
2022/03/10 03:57:30;;;;;;;;;;;;;;;1.46;100.00;102239.69;5019918;28;20424;-79
2022/03/10 03:59:56;;;;;;;;;;;;;;;1.47;100.00;102238.94;5019913;28;19956;-78
2022/03/10 04:02:21;;;;;;;;;;;;;;;1.45;100.00;102237.88;5044648;28;20373;-79
2022/03/10 04:04:46;;;;;;;;;;;;;;;1.48;100.00;102232.97;5037531;28;19928;-78
2022/03/10 04:07:12;;;;;;;;;;;;;;;1.51;100.00;102238.44;5019295;28;19976;-79
2022/03/10 04:09:37;;;;;;;;;;;;;;;1.45;100.00;102240.47;5037155;28;19952;-78
2022/03/10 04:12:07;;;;;;;;;;;;;;;1.42;100.00;102238.50;5019105;28;20018;-79
2022/03/10 04:14:33;;;;;;;;;;;;;;;1.41;100.00;102239.25;5052549;28;19947;-78
2022/03/10 04:16:58;;;;;;;;;;;;;;;1.41;100.00;102250.56;5019834;28;20345;-78
2022/03/10 04:19:23;;;;;;;;;;;;;;;1.32;100.00;102247.09;5037304;28;20016;-78
2022/03/10 04:21:50;;;;;;;;;;;;;;;1.27;100.00;102248.31;5019432;28;20257;-79
2022/03/10 04:24:16;;;;;;;;;;;;;;;1.24;100.00;102253.22;5018956;28;20713;-78
2022/03/10 04:26:42;;;;;;;;;;;;;;;1.21;100.00;102247.72;5018998;28;19975;-78
2022/03/10 04:29:07;;;;;;;;;;;;;;;1.17;100.00;102259.50;5036261;28;19925;-78
2022/03/10 04:31:32;;;;;;;;;;;;;;;1.16;100.00;102257.66;5052335;28;19955;-78
2022/03/10 04:33:57;;;;;;;;;;;;;;;1.11;100.00;102251.13;5019210;28;19971;-78
2022/03/10 04:36:23;;;;;;;;;;;;;;;1.04;100.00;102254.81;5018806;28;19921;-79
2022/03/10 04:38:49;;;;;;;;;;;;;;;1.01;100.00;102253.59;5019248;28;20293;-79
2022/03/10 04:41:14;;;;;;;;;;;;;;;0.96;100.00;102258.31;5018932;28;20373;-78
2022/03/10 04:43:46;;;;;;;;;;;;;;;0.88;100.00;102256.69;5019053;28;19925;-79
2022/03/10 04:46:11;;;;;;;;;;;;;;;0.89;100.00;102253.34;5019063;28;20014;-79
2022/03/10 04:48:37;;;;;;;;;;;;;;;0.90;100.00;102260.31;5019435;28;19928;-79
2022/03/10 04:51:02;;;;;;;;;;;;;;;0.88;100.00;102254.09;5018579;28;19928;-79
2022/03/10 04:53:28;;;;;;;;;;;;;;;0.90;100.00;102255.13;5018827;28;19921;-79
2022/03/10 04:55:53;;;;;;;;;;;;;;;0.86;100.00;102251.34;5035197;28;19928;-79
2022/03/10 04:58:18;;;;;;;;;;;;;;;0.87;100.00;102247.06;5018472;28;19925;-79
2022/03/10 05:00:44;;;;;;;;;;;;;;;0.87;100.00;102248.00;5036309;28;20316;-79
2022/03/10 05:03:15;;;;;;;;;;;;;;;0.91;100.00;102248.28;5036110;28;19925;-79
2022/03/10 05:05:40;;;;;;;;;;;;;;;0.89;100.00;102241.25;5018529;28;20016;-79
2022/03/10 05:08:06;;;;;;;;;;;;;;;0.90;100.00;102236.97;5017173;28;19956;-80
2022/03/10 05:10:31;;;;;;;;;;;;;;;0.91;100.00;102244.00;5018907;28;20605;-79
2022/03/10 05:12:57;;;;;;;;;;;;;;;0.88;100.00;102241.13;5017892;28;20305;-80
2022/03/10 05:15:31;;;;;;;;;;;;;;;0.86;100.00;102245.25;5018521;28;19925;-79
2022/03/10 05:17:56;;;;;;;;;;;;;;;0.74;100.00;102242.38;5018974;28;19921;-79
2022/03/10 05:20:22;;;;;;;;;;;;;;;0.71;100.00;102234.28;5036136;28;19921;-80
2022/03/10 05:22:57;;;;;;;;;;;;;;;0.64;100.00;102234.47;5018162;28;19921;-79
2022/03/10 05:25:23;;;;;;;;;;;;;;;0.63;100.00;102238.72;5018012;28;19920;-79
2022/03/10 05:27:49;;;;;;;;;;;;;;;0.64;100.00;102234.47;5018138;28;19987;-80
2022/03/10 05:30:15;;;;;;;;;;;;;;;0.61;100.00;102237.66;5017727;28;19921;-79
2022/03/10 05:32:41;;;;;;;;;;;;;;;0.61;100.00;102245.44;5035325;28;20016;-79
2022/03/10 05:35:07;;;;;;;;;;;;;;;0.53;100.00;102244.69;5016164;28;19928;-80
2022/03/10 05:37:35;;;;;;;;;;;;;;;0.49;100.00;102244.22;5017507;28;19921;-79
2022/03/10 05:40:00;;;;;;;;;;;;;;;0.45;100.00;102237.84;5017723;28;19921;-79
2022/03/10 05:42:31;;;;;;;;;;;;;;;0.43;100.00;102252.31;5018140;28;19921;-77
2022/03/10 05:44:56;;;;;;;;;;;;;;;0.38;100.00;102250.94;5054202;28;19952;-79
2022/03/10 05:47:21;;;;;;;;;;;;;;;0.32;100.00;102246.06;5018314;28;19921;-79
2022/03/10 05:49:47;;;;;;;;;;;;;;;0.31;100.00;102246.84;5017693;28;20263;-78
2022/03/10 05:52:12;;;;;;;;;;;;;;;0.34;100.00;102246.22;5017043;28;19928;-78
2022/03/10 05:54:38;;;;;;;;;;;;;;;0.29;100.00;102240.56;5017487;28;19929;-78
2022/03/10 05:57:03;;;;;;;;;;;;;;;0.37;100.00;102246.50;5017598;28;19921;-79
2022/03/10 05:59:31;;;;;;;;;;;;;;;0.39;100.00;102249.25;5050570;28;20059;-79
2022/03/10 06:01:58;;;;;;;;;;;;;;;0.43;100.00;102246.22;5017634;28;19922;-79
2022/03/10 06:04:23;;;;;;;;;;;;;;;0.43;100.00;102243.63;5016714;28;19921;-79
2022/03/10 06:06:49;;;;;;;;;;;;;;;0.43;100.00;102236.75;5017054;28;20388;-79
2022/03/10 06:09:14;;;;;;;;;;;;;;;0.41;100.00;102242.56;5050351;28;19932;-79
2022/03/10 06:11:51;;;;;;;;;;;;;;;0.46;100.00;102239.66;5035043;28;19928;-79
2022/03/10 06:14:18;;;;;;;;;;;;;;;0.48;100.00;102238.16;5016784;28;19925;-80
2022/03/10 06:16:44;;;;;;;;;;;;;;;0.49;100.00;102239.06;5017554;28;19921;-80
2022/03/10 06:19:09;;;;;;;;;;;;;;;0.52;100.00;102244.53;5016679;28;19917;-79
2022/03/10 06:21:34;;;;;;;;;;;;;;;0.54;100.00;102237.81;5017517;28;19921;-79
2022/03/10 06:24:01;;;;;;;;;;;;;;;0.58;100.00;102241.66;5049942;28;20394;-79
2022/03/10 06:26:26;;;;;;;;;;;;;;;0.58;100.00;102245.16;5017685;28;20077;-79
2022/03/10 06:28:51;;;;;;;;;;;;;;;0.62;100.00;102242.09;5017178;28;19921;-78
2022/03/10 06:31:16;;;;;;;;;;;;;;;0.70;100.00;102241.16;5017349;28;19917;-77
2022/03/10 06:33:42;;;;;;;;;;;;;;;0.68;100.00;102240.09;5037718;28;20316;-77
2022/03/10 06:36:08;;;;;;;;;;;;;;;0.74;100.00;102241.47;5038142;28;19921;-78
2022/03/10 06:38:36;;;;;;;;;;;;;;;0.83;100.00;102238.06;5017166;28;19928;-79
2022/03/10 06:41:02;;;;;;;;;;;;;;;1.00;100.00;102242.31;5032372;28;19925;-78
2022/03/10 06:43:29;;;;;;;;;;;;;;;1.17;100.00;102245.63;5016614;28;19927;-78
2022/03/10 06:45:55;;;;;;;;;;;;;;;1.50;100.00;102241.81;5017248;28;19921;-78
2022/03/10 06:48:20;;;;;;;;;;;;;;;1.53;100.00;102242.09;5016127;28;19967;-77
2022/03/10 06:50:46;;;;;;;;;;;;;;;1.73;100.00;102244.88;5034302;28;20408;-77
2022/03/10 06:53:12;;;;;;;;;;;;;;;1.77;100.00;102249.63;5016412;28;19921;-77
2022/03/10 06:55:38;;;;;;;;;;;;;;;2.08;100.00;102247.28;5034349;28;19959;-79
2022/03/10 06:58:05;;;;;;;;;;;;;;;2.42;100.00;102252.94;5015576;28;19957;-77
2022/03/10 07:00:31;;;;;;;;;;;;;;;2.73;100.00;102250.53;5015087;28;20023;-78
2022/03/10 07:02:56;;;;;;;;;;;;;;;2.46;100.00;102254.16;5013994;28;20122;-77
2022/03/10 07:05:21;;;;;;;;;;;;;;;2.50;100.00;102259.78;5014838;28;20012;-77
2022/03/10 07:07:47;;;;;;;;;;;;;;;2.40;100.00;102267.50;5014102;28;19955;-78
2022/03/10 07:10:12;;;;;;;;;;;;;;;2.11;100.00;102267.41;5014227;28;19932;-78
2022/03/10 07:12:41;;;;;;;;;;;;;;;2.34;100.00;102275.63;5031335;28;19984;-78
2022/03/10 07:15:07;;;;;;;;;;;;;;;2.43;100.00;102266.88;5015983;28;19968;-77
2022/03/10 07:17:34;;;;;;;;;;;;;;;2.57;100.00;102270.75;5017581;28;20330;-77
2022/03/10 07:19:59;;;;;;;;;;;;;;;2.40;100.00;102270.09;5018292;28;19917;-76
2022/03/10 07:22:25;;;;;;;;;;;;;;;2.50;100.00;102272.78;5035616;28;20389;-77
2022/03/10 07:24:50;;;;;;;;;;;;;;;2.63;100.00;102280.00;5017278;28;19921;-78
2022/03/10 07:27:15;;;;;;;;;;;;;;;2.62;100.00;102280.75;5019739;28;20101;-78
2022/03/10 07:29:41;;;;;;;;;;;;;;;2.86;100.00;102281.19;5036121;28;20428;-77
2022/03/10 07:32:09;;;;;;;;;;;;;;;3.15;100.00;102288.06;5034922;28;20266;-78
2022/03/10 07:34:34;;;;;;;;;;;;;;;3.46;100.00;102289.06;5018055;28;20238;-78
2022/03/10 07:36:59;;;;;;;;;;;;;;;3.21;100.00;102280.78;5035222;28;19925;-78
2022/03/10 07:39:24;;;;;;;;;;;;;;;3.26;100.00;102284.69;5017244;28;20255;-78
2022/03/10 07:41:53;;;;;;;;;;;;;;;3.19;100.00;102288.47;5018056;28;19925;-77
2022/03/10 07:44:18;;;;;;;;;;;;;;;3.39;100.00;102295.44;5033457;28;19925;-77
2022/03/10 07:46:43;;;;;;;;;;;;;;;3.41;100.00;102291.25;5035591;28;19921;-78
2022/03/10 07:49:09;;;;;;;;;;;;;;;3.34;100.00;102285.38;5017709;28;20047;-78
2022/03/10 07:51:35;;;;;;;;;;;;;;;3.30;100.00;102298.94;5050356;28;19998;-76
2022/03/10 07:54:00;;;;;;;;;;;;;;;3.46;100.00;102285.56;5017514;28;20353;-77
2022/03/10 07:56:26;;;;;;;;;;;;;;;3.45;100.00;102288.94;5018211;28;19952;-77
2022/03/10 07:58:51;;;;;;;;;;;;;;;3.66;100.00;102284.69;5034663;28;20368;-78
2022/03/10 08:01:17;;;;;;;;;;;;;;;3.62;100.00;102278.31;5017959;28;19924;-77
2022/03/10 08:03:47;;;;;;;;;;;;;;;3.76;100.00;102284.72;5034545;28;19925;-77
2022/03/10 08:06:12;;;;;;;;;;;;;;;4.11;100.00;102279.91;5034424;28;19925;-78
2022/03/10 08:08:43;;;;;;;;;;;;;;;4.53;100.00;102286.00;5017910;28;19975;-78
2022/03/10 08:11:10;;;;;;;;;;;;;;;4.92;100.00;102289.16;5017509;28;19917;-78
2022/03/10 08:13:36;;;;;;;;;;;;;;;5.42;100.00;102287.09;5034736;28;20012;-78
2022/03/10 08:16:01;;;;;;;;;;;;;;;5.52;100.00;102294.00;5017411;28;19965;-77
2022/03/10 08:18:27;;;;;;;;;;;;;;;5.47;100.00;102296.22;5017297;28;19944;-77
2022/03/10 08:20:54;;;;;;;;;;;;;;;5.74;100.00;102294.88;5016428;28;19925;-79
2022/03/10 08:23:21;;;;;;;;;;;;;;;5.44;100.00;102301.22;5016485;28;19925;-77
2022/03/10 08:25:50;;;;;;;;;;;;;;;6.06;100.00;102292.97;5049957;28;20405;-78
2022/03/10 08:28:16;;;;;;;;;;;;;;;5.67;100.00;102289.03;5015710;28;19917;-78
2022/03/10 08:30:42;;;;;;;;;;;;;;;5.70;100.00;102286.66;5034450;28;19921;-78
2022/03/10 08:33:07;;;;;;;;;;;;;;;5.84;100.00;102280.84;5032969;28;19967;-78
2022/03/10 08:35:32;;;;;;;;;;;;;;;5.85;100.00;102281.75;5015805;28;19928;-77
2022/03/10 08:37:58;;;;;;;;;;;;;;;6.02;100.00;102284.00;5032510;28;19944;-76
2022/03/10 08:40:23;;;;;;;;;;;;;;;6.02;100.00;102283.09;5016164;28;19917;-77
2022/03/10 08:42:49;;;;;;;;;;;;;;;6.02;100.00;102283.09;5016428;28;19964;-78
2022/03/10 08:45:14;;;;;;;;;;;;;;;6.32;100.00;102281.00;5016349;28;19967;-78
2022/03/10 08:47:40;;;;;;;;;;;;;;;6.51;100.00;102276.38;5016064;28;19928;-78
2022/03/10 08:50:06;;;;;;;;;;;;;;;6.73;100.00;102271.03;5016267;28;19928;-77
2022/03/10 08:52:32;;;;;;;;;;;;;;;6.55;100.00;102272.28;5033755;28;19940;-77
2022/03/10 08:54:57;;;;;;;;;;;;;;;6.51;100.00;102272.81;5015339;28;20378;-77
2022/03/10 08:57:22;;;;;;;;;;;;;;;6.45;100.00;102276.81;5016649;28;19927;-77
2022/03/10 08:59:48;;;;;;;;;;;;;;;6.86;100.00;102271.94;5016612;28;19917;-77
2022/03/10 09:02:14;;;;;;;;;;;;;;;6.64;100.00;102265.09;5049134;28;19931;-78
2022/03/10 09:04:40;;;;;;;;;;;;;;;7.00;100.00;102271.22;5016333;28;20389;-78
2022/03/10 09:07:06;;;;;;;;;;;;;;;7.07;100.00;102265.66;5015196;28;19928;-78
2022/03/10 09:09:31;;;;;;;;;;;;;;;6.93;100.00;102263.72;5031905;28;19925;-77
2022/03/10 09:11:57;;;;;;;;;;;;;;;6.97;100.00;102263.16;5015883;28;19952;-76
2022/03/10 09:14:22;;;;;;;;;;;;;;;6.79;100.00;102270.56;5015963;28;19921;-76
2022/03/10 09:16:47;;;;;;;;;;;;;;;6.93;100.00;102266.34;5015530;28;19921;-76
2022/03/10 09:19:13;;;;;;;;;;;;;;;6.86;100.00;102258.84;5032272;28;20440;-79
2022/03/10 09:21:38;;;;;;;;;;;;;;;6.86;100.00;102264.09;5033327;28;19921;-77
2022/03/10 09:24:03;;;;;;;;;;;;;;;6.93;100.00;102266.34;5031245;28;20282;-77
2022/03/10 09:26:28;;;;;;;;;;;;;;;7.11;100.00;102248.44;5016068;28;19929;-77
2022/03/10 09:28:54;;;;;;;;;;;;;;;7.09;100.00;102240.47;5015794;28;19952;-76
2022/03/10 09:31:19;;;;;;;;;;;;;;;7.34;100.00;102243.13;5031567;28;19925;-78
2022/03/10 09:33:45;;;;;;;;;;;;;;;7.52;100.00;102238.31;5032089;28;20366;-78
2022/03/10 09:36:11;;;;;;;;;;;;;;;7.51;100.00;102246.06;5015014;28;19994;-77
2022/03/10 09:38:36;;;;;;;;;;;;;;;7.44;100.00;102246.41;5014939;28;20313;-77
2022/03/10 09:41:02;;;;;;;;;;;;;;;7.45;100.00;102237.75;5031878;28;19947;-77
2022/03/10 09:43:28;;;;;;;;;;;;;;;7.66;100.00;102239.28;5033158;28;19961;-77
2022/03/10 09:45:54;;;;;;;;;;;;;;;7.77;100.00;102232.16;5032704;28;20472;-77
2022/03/10 09:48:20;;;;;;;;;;;;;;;7.90;100.00;102234.81;5015280;28;19975;-77
2022/03/10 09:50:46;;;;;;;;;;;;;;;7.99;100.00;102229.28;5014143;28;19921;-78
2022/03/10 09:53:11;;;;;;;;;;;;;;;8.20;100.00;102235.09;5015033;28;19994;-77
2022/03/10 09:55:36;;;;;;;;;;;;;;;8.19;100.00;102233.28;5014940;28;20365;-77
2022/03/10 09:58:02;;;;;;;;;;;;;;;8.49;100.00;102230.91;5031156;28;19929;-77
2022/03/10 10:00:28;;;;;;;;;;;;;;;8.65;100.00;102237.19;5015023;28;19921;-77
2022/03/10 10:02:55;;;;;;;;;;;;;;;8.80;100.00;102239.09;5014927;28;19928;-77
2022/03/10 10:05:25;;;;;;;;;;;;;;;8.78;100.00;102242.44;5013896;28;20077;-77
2022/03/10 10:08:06;;;;;;;;;;;;;;;8.95;100.00;102233.03;5015397;28;19920;-77
2022/03/10 10:10:33;;;;;;;;;;;;;;;9.01;100.00;102228.19;5015156;28;20016;-78
2022/03/10 10:13:01;;;;;;;;;;;;;;;9.15;100.00;102231.66;5030283;28;19921;-75
2022/03/10 10:15:31;;;;;;;;;;;;;;;9.24;100.00;102227.00;5031092;28;20016;-79
2022/03/10 10:17:57;;;;;;;;;;;;;;;9.35;100.00;102230.31;5014427;28;19921;-77
2022/03/10 10:20:22;;;;;;;;;;;;;;;9.45;100.00;102230.06;5013982;28;19986;-77
2022/03/10 10:22:51;;;;;;;;;;;;;;;9.49;100.00;102232.09;5014572;28;19963;-77
2022/03/10 10:25:20;;;;;;;;;;;;;;;9.72;100.00;102224.72;5014306;28;19936;-77
2022/03/10 10:27:49;;;;;;;;;;;;;;;9.74;100.00;102215.22;5014281;28;19925;-77
2022/03/10 10:30:15;;;;;;;;;;;;;;;9.91;100.00;102220.56;5014618;28;19921;-77
2022/03/10 10:32:49;;;;;;;;;;;;;;;10.10;100.00;102222.56;5014534;28;19932;-76
2022/03/10 10:35:20;;;;;;;;;;;;;;;10.17;100.00;102215.13;5030888;28;19925;-76
2022/03/10 10:37:48;;;;;;;;;;;;;;;10.25;100.00;102215.59;5014654;28;19928;-78
2022/03/10 10:40:18;;;;;;;;;;;;;;;10.28;100.00;102217.50;5013800;28;20400;-79
2022/03/10 10:42:44;;;;;;;;;;;;;;;10.28;100.00;102220.16;5014365;28;19921;-78
2022/03/10 10:45:28;;;;;;;;;;;;;;;10.36;100.00;102222.47;5031164;28;19936;-78
2022/03/10 10:48:02;;;;;;;;;;;;;;;10.39;100.00;102216.44;5014048;28;20006;-79
2022/03/10 10:50:28;;;;;;;;;;;;;;;10.43;100.00;102218.44;5019143;28;19921;-78
2022/03/10 10:52:53;;;;;;;;;;;;;;;10.48;100.00;102216.09;5021283;28;19958;-78
2022/03/10 10:55:19;;;;;;;;;;;;;;;10.36;100.00;102211.00;5038273;28;19983;-78
2022/03/10 10:57:45;;;;;;;;;;;;;;;10.75;100.00;102211.47;5038780;28;20007;-79
2022/03/10 11:00:12;;;;;;;;;;;;;;;10.74;100.00;102207.94;5038773;28;19925;-78
2022/03/10 11:02:41;;;;;;;;;;;;;;;10.95;100.00;102204.69;5021961;28;19932;-78
2022/03/10 11:05:08;;;;;;;;;;;;;;;10.94;100.00;102202.91;5021485;28;19928;-78
2022/03/10 11:07:33;;;;;;;;;;;;;;;11.06;100.00;102193.03;5021523;28;20334;-76
2022/03/10 11:10:01;;;;;;;;;;;;;;;11.07;100.00;102183.41;5038240;28;20010;-79
2022/03/10 11:12:27;;;;;;;;;;;;;;;11.25;100.00;102187.06;5021487;28;20241;-78
2022/03/10 11:14:53;;;;;;;;;;;;;;;11.29;100.00;102191.66;5038890;28;19956;-80
2022/03/10 11:17:19;;;;;;;;;;;;;;;11.41;100.00;102186.16;5037368;28;19979;-79
2022/03/10 11:19:46;;;;;;;;;;;;;;;11.34;100.00;102188.38;5054857;28;20358;-80
2022/03/10 11:22:33;;;;;;;;;;;;;;;11.46;100.00;102178.47;5020768;28;19971;-79
2022/03/10 11:25:03;;;;;;;;;;;;;;;11.75;100.00;102182.66;5021167;28;19975;-79
2022/03/10 11:27:31;;;;;;;;;;;;;;;11.88;100.00;102171.00;5021590;28;20373;-78
2022/03/10 11:29:57;;;;;;;;;;;;;;;12.16;100.00;102177.72;5053976;28;20008;-79
2022/03/10 11:32:27;;;;;;;;;;;;;;;12.11;100.00;102172.22;5039629;28;19928;-80
2022/03/10 11:34:54;;;;;;;;;;;;;;;12.17;100.00;102172.53;5021971;28;19928;-79
2022/03/10 11:37:49;;;;;;;;;;;;;;;12.28;100.00;102174.81;5020663;28;20391;-79
2022/03/10 11:40:15;;;;;;;;;;;;;;;12.37;100.00;102170.00;5021134;28;20008;-78
2022/03/10 11:42:42;;;;;;;;;;;;;;;12.46;100.00;102169.53;5021535;28;20673;-78
2022/03/10 11:45:17;;;;;;;;;;;;;;;12.30;100.00;102158.19;5021154;28;20505;-78
2022/03/10 11:47:43;;;;;;;;;;;;;;;12.50;100.00;102159.19;5039256;28;19921;-79
2022/03/10 11:50:17;;;;;;;;;;;;;;;12.63;100.00;102155.41;5021136;28;19921;-78
2022/03/10 11:52:43;;;;;;;;;;;;;;;12.85;100.00;102167.94;5021300;28;19921;-78
2022/03/10 11:55:12;;;;;;;;;;;;;;;12.70;100.00;102151.34;5020600;28;20008;-78
2022/03/10 11:57:43;;;;;;;;;;;;;;;12.92;100.00;102146.22;5037594;28;19929;-78
2022/03/10 12:00:08;;;;;;;;;;;;;;;12.98;100.00;102148.25;5020981;28;19921;-78
2022/03/10 12:02:43;;;;;;;;;;;;;;;13.10;100.00;102140.88;5034542;28;20366;-80
2022/03/10 12:05:11;;;;;;;;;;;;;;;13.17;100.00;102139.41;5017552;28;20456;-78
2022/03/10 12:07:40;;;;;;;;;;;;;;;13.23;100.00;102136.16;5017958;28;20046;-79
2022/03/10 12:10:06;;;;;;;;;;;;;;;13.15;100.00;102134.91;5034698;28;20016;-79
2022/03/10 12:12:35;;;;;;;;;;;;;;;13.16;100.00;102131.41;5035236;28;19921;-78
2022/03/10 12:15:22;;;;;;;;;;;;;;;13.23;100.00;102131.78;5017945;28;22316;-79
2022/03/10 12:17:52;;;;;;;;;;;;;;;13.26;100.00;102131.00;5018297;28;19921;-79
2022/03/10 12:20:20;;;;;;;;;;;;;;;13.23;100.00;102131.78;5049567;28;19979;-79
2022/03/10 12:23:03;;;;;;;;;;;;;;;13.41;100.00;102113.22;5050743;28;19929;-79
2022/03/10 12:25:29;;;;;;;;;;;;;;;13.39;100.00;102116.63;5018240;28;20008;-79
2022/03/10 12:27:55;;;;;;;;;;;;;;;13.50;100.00;102120.69;5018285;28;19928;-79
2022/03/10 12:30:30;;;;;;;;;;;;;;;13.53;100.00;102114.59;5017998;28;19921;-79
2022/03/10 12:32:57;;;;;;;;;;;;;;;13.47;100.00;102109.97;5019839;28;19960;-79
2022/03/10 12:35:26;;;;;;;;;;;;;;;13.60;100.00;102112.28;5033448;28;19990;-79
2022/03/10 12:37:54;;;;;;;;;;;;;;;13.58;100.00;102113.03;5035420;28;19921;-78
2022/03/10 12:40:29;;;;;;;;;;;;;;;13.45;100.00;102098.38;5017640;28;19928;-79